sensor_id;sensor_type;location;lat;lon;timestamp;temperature;humidity
9640;DHT22;51745;50.872;4.732;2023-04-06T00:02:02;2.40;99.90
9640;DHT22;51745;50.872;4.732;2023-04-06T00:04:50;2.40;99.90
9640;DHT22;51745;50.872;4.732;2023-04-06T00:07:39;2.40;99.90
9640;DHT22;51745;50.872;4.732;2023-04-06T00:10:28;3.00;99.90
9640;DHT22;51745;50.872;4.732;2023-04-06T00:13:16;2.40;99.90
9640;DHT22;51745;50.872;4.732;2023-04-06T00:16:04;2.30;99.90
9640;DHT22;51745;50.872;4.732;2023-04-06T00:18:52;2.30;99.90
9640;DHT22;51745;50.872;4.732;2023-04-06T00:21:40;2.30;99.90
9640;DHT22;51745;50.872;4.732;2023-04-06T00:24:29;2.10;99.90
9640;DHT22;51745;50.872;4.732;2023-04-06T00:27:17;2.00;99.90
9640;DHT22;51745;50.872;4.732;2023-04-06T00:30:05;2.20;99.90
9640;DHT22;51745;50.872;4.732;2023-04-06T00:32:53;2.00;99.90
9640;DHT22;51745;50.872;4.732;2023-04-06T00:35:42;2.10;99.90
9640;DHT22;51745;50.872;4.732;2023-04-06T00:38:32;2.00;99.90
9640;DHT22;51745;50.872;4.732;2023-04-06T00:41:23;2.00;99.90
9640;DHT22;51745;50.872;4.732;2023-04-06T00:44:10;2.40;99.90
9640;DHT22;51745;50.872;4.732;2023-04-06T00:47:00;1.90;99.90
9640;DHT22;51745;50.872;4.732;2023-04-06T00:49:47;2.30;99.90
9640;DHT22;51745;50.872;4.732;2023-04-06T00:52:35;2.30;99.90
9640;DHT22;51745;50.872;4.732;2023-04-06T00:55:26;2.40;99.90
9640;DHT22;51745;50.872;4.732;2023-04-06T00:58:16;2.40;99.90
9640;DHT22;51745;50.872;4.732;2023-04-06T01:01:11;2.50;99.90
9640;DHT22;51745;50.872;4.732;2023-04-06T01:03:59;2.80;99.90
9640;DHT22;51745;50.872;4.732;2023-04-06T01:06:54;2.70;99.90
9640;DHT22;51745;50.872;4.732;2023-04-06T01:09:47;2.60;99.90
9640;DHT22;51745;50.872;4.732;2023-04-06T01:12:41;2.70;99.90
9640;DHT22;51745;50.872;4.732;2023-04-06T01:15:40;2.80;99.90
9640;DHT22;51745;50.872;4.732;2023-04-06T01:18:32;2.80;99.90
9640;DHT22;51745;50.872;4.732;2023-04-06T01:21:32;2.90;99.90
9640;DHT22;51745;50.872;4.732;2023-04-06T01:24:46;2.80;99.90
9640;DHT22;51745;50.872;4.732;2023-04-06T01:27:44;2.90;99.90
9640;DHT22;51745;50.872;4.732;2023-04-06T01:30:40;2.90;99.90
9640;DHT22;51745;50.872;4.732;2023-04-06T01:33:42;3.00;99.90
9640;DHT22;51745;50.872;4.732;2023-04-06T01:36:34;3.00;99.90
9640;DHT22;51745;50.872;4.732;2023-04-06T01:39:36;3.10;99.90
9640;DHT22;51745;50.872;4.732;2023-04-06T01:42:27;3.10;99.90
9640;DHT22;51745;50.872;4.732;2023-04-06T01:45:16;3.20;99.90
9640;DHT22;51745;50.872;4.732;2023-04-06T01:48:06;3.10;99.90
9640;DHT22;51745;50.872;4.732;2023-04-06T01:50:54;3.20;99.90
9640;DHT22;51745;50.872;4.732;2023-04-06T01:53:48;3.20;99.90
9640;DHT22;51745;50.872;4.732;2023-04-06T01:56:38;3.30;99.90
9640;DHT22;51745;50.872;4.732;2023-04-06T01:59:45;3.30;99.90
9640;DHT22;51745;50.872;4.732;2023-04-06T02:02:41;3.60;99.90
9640;DHT22;51745;50.872;4.732;2023-04-06T02:05:36;3.30;99.90
9640;DHT22;51745;50.872;4.732;2023-04-06T02:08:35;3.40;99.90
9640;DHT22;51745;50.872;4.732;2023-04-06T02:11:22;3.30;99.90
9640;DHT22;51745;50.872;4.732;2023-04-06T02:14:16;3.40;99.90
9640;DHT22;51745;50.872;4.732;2023-04-06T02:17:10;3.40;99.90
9640;DHT22;51745;50.872;4.732;2023-04-06T02:19:59;3.30;99.90
9640;DHT22;51745;50.872;4.732;2023-04-06T02:22:47;3.80;99.90
9640;DHT22;51745;50.872;4.732;2023-04-06T02:25:35;3.40;99.90
9640;DHT22;51745;50.872;4.732;2023-04-06T02:28:22;3.40;99.90
9640;DHT22;51745;50.872;4.732;2023-04-06T02:31:10;3.60;99.90
9640;DHT22;51745;50.872;4.732;2023-04-06T02:33:59;3.40;99.90
9640;DHT22;51745;50.872;4.732;2023-04-06T02:36:49;3.30;99.90
9640;DHT22;51745;50.872;4.732;2023-04-06T02:39:37;3.40;99.90
9640;DHT22;51745;50.872;4.732;2023-04-06T02:42:27;3.20;99.90
9640;DHT22;51745;50.872;4.732;2023-04-06T02:45:14;3.30;99.90
9640;DHT22;51745;50.872;4.732;2023-04-06T02:48:05;3.20;99.90
9640;DHT22;51745;50.872;4.732;2023-04-06T02:50:57;3.30;99.90
9640;DHT22;51745;50.872;4.732;2023-04-06T02:53:45;3.30;99.90
9640;DHT22;51745;50.872;4.732;2023-04-06T02:56:33;3.30;99.90
9640;DHT22;51745;50.872;4.732;2023-04-06T02:59:21;3.20;99.90
9640;DHT22;51745;50.872;4.732;2023-04-06T03:02:22;3.20;99.90
9640;DHT22;51745;50.872;4.732;2023-04-06T03:05:12;3.20;99.90
9640;DHT22;51745;50.872;4.732;2023-04-06T03:08:03;3.20;99.90
9640;DHT22;51745;50.872;4.732;2023-04-06T03:10:58;3.20;99.90
9640;DHT22;51745;50.872;4.732;2023-04-06T03:13:53;3.00;99.90
9640;DHT22;51745;50.872;4.732;2023-04-06T03:16:40;3.30;99.90
9640;DHT22;51745;50.872;4.732;2023-04-06T03:19:29;3.30;99.90
9640;DHT22;51745;50.872;4.732;2023-04-06T03:22:19;3.30;99.90
9640;DHT22;51745;50.872;4.732;2023-04-06T03:25:08;3.30;99.90
9640;DHT22;51745;50.872;4.732;2023-04-06T03:27:57;3.40;99.90
9640;DHT22;51745;50.872;4.732;2023-04-06T03:30:45;3.40;99.90
9640;DHT22;51745;50.872;4.732;2023-04-06T03:33:36;3.80;99.90
9640;DHT22;51745;50.872;4.732;2023-04-06T03:36:25;3.60;99.90
9640;DHT22;51745;50.872;4.732;2023-04-06T03:39:15;3.60;99.90
9640;DHT22;51745;50.872;4.732;2023-04-06T03:42:04;3.50;99.90
9640;DHT22;51745;50.872;4.732;2023-04-06T03:44:55;3.50;99.90
9640;DHT22;51745;50.872;4.732;2023-04-06T03:47:43;3.50;99.90
9640;DHT22;51745;50.872;4.732;2023-04-06T03:50:30;3.50;99.90
9640;DHT22;51745;50.872;4.732;2023-04-06T03:53:18;3.40;99.90
9640;DHT22;51745;50.872;4.732;2023-04-06T03:56:06;3.50;99.90
9640;DHT22;51745;50.872;4.732;2023-04-06T03:58:54;4.10;99.90
9640;DHT22;51745;50.872;4.732;2023-04-06T04:01:42;3.50;99.90
9640;DHT22;51745;50.872;4.732;2023-04-06T04:04:30;3.50;99.90
9640;DHT22;51745;50.872;4.732;2023-04-06T04:07:20;3.60;99.90
9640;DHT22;51745;50.872;4.732;2023-04-06T04:10:09;3.50;99.90
9640;DHT22;51745;50.872;4.732;2023-04-06T04:12:56;3.80;99.90
9640;DHT22;51745;50.872;4.732;2023-04-06T04:15:45;3.60;99.90
9640;DHT22;51745;50.872;4.732;2023-04-06T04:18:34;3.60;99.90
9640;DHT22;51745;50.872;4.732;2023-04-06T04:21:24;3.60;99.90
9640;DHT22;51745;50.872;4.732;2023-04-06T04:24:12;3.60;99.90
9640;DHT22;51745;50.872;4.732;2023-04-06T04:27:00;3.60;99.90
9640;DHT22;51745;50.872;4.732;2023-04-06T04:29:50;3.80;99.90
9640;DHT22;51745;50.872;4.732;2023-04-06T04:32:40;3.70;99.90
9640;DHT22;51745;50.872;4.732;2023-04-06T04:35:28;4.30;99.90
9640;DHT22;51745;50.872;4.732;2023-04-06T04:38:16;2.90;99.90
9640;DHT22;51745;50.872;4.732;2023-04-06T04:41:09;3.70;99.90
9640;DHT22;51745;50.872;4.732;2023-04-06T04:43:59;3.70;99.90
9640;DHT22;51745;50.872;4.732;2023-04-06T04:46:47;3.70;99.90
9640;DHT22;51745;50.872;4.732;2023-04-06T04:49:42;3.70;99.90
9640;DHT22;51745;50.872;4.732;2023-04-06T04:52:33;3.70;99.90
9640;DHT22;51745;50.872;4.732;2023-04-06T04:55:32;3.70;99.90
9640;DHT22;51745;50.872;4.732;2023-04-06T04:58:20;3.70;99.90
9640;DHT22;51745;50.872;4.732;2023-04-06T05:01:14;3.80;99.90
9640;DHT22;51745;50.872;4.732;2023-04-06T05:04:03;3.70;99.90
9640;DHT22;51745;50.872;4.732;2023-04-06T05:07:02;3.80;99.90
9640;DHT22;51745;50.872;4.732;2023-04-06T05:09:51;3.80;99.90
9640;DHT22;51745;50.872;4.732;2023-04-06T05:12:41;3.80;99.90
9640;DHT22;51745;50.872;4.732;2023-04-06T05:15:29;3.90;99.90
9640;DHT22;51745;50.872;4.732;2023-04-06T05:18:23;4.00;99.90
9640;DHT22;51745;50.872;4.732;2023-04-06T05:21:11;4.00;99.90
9640;DHT22;51745;50.872;4.732;2023-04-06T05:24:14;4.10;99.90
9640;DHT22;51745;50.872;4.732;2023-04-06T05:27:04;4.10;99.90
9640;DHT22;51745;50.872;4.732;2023-04-06T05:29:52;4.20;99.90
9640;DHT22;51745;50.872;4.732;2023-04-06T05:32:45;4.20;99.90
9640;DHT22;51745;50.872;4.732;2023-04-06T05:35:33;4.20;99.90
9640;DHT22;51745;50.872;4.732;2023-04-06T05:38:27;4.30;99.90
9640;DHT22;51745;50.872;4.732;2023-04-06T05:41:23;4.40;99.90
9640;DHT22;51745;50.872;4.732;2023-04-06T05:44:11;4.40;99.90
9640;DHT22;51745;50.872;4.732;2023-04-06T05:47:02;4.40;99.90
9640;DHT22;51745;50.872;4.732;2023-04-06T05:49:50;4.50;99.90
9640;DHT22;51745;50.872;4.732;2023-04-06T05:52:47;4.50;99.90
9640;DHT22;51745;50.872;4.732;2023-04-06T05:55:41;4.70;99.90
9640;DHT22;51745;50.872;4.732;2023-04-06T05:58:35;4.60;99.90
9640;DHT22;51745;50.872;4.732;2023-04-06T06:01:24;4.90;99.90
9640;DHT22;51745;50.872;4.732;2023-04-06T06:04:12;4.80;99.90
9640;DHT22;51745;50.872;4.732;2023-04-06T06:07:02;5.10;99.90
9640;DHT22;51745;50.872;4.732;2023-04-06T06:09:59;5.30;99.90
9640;DHT22;51745;50.872;4.732;2023-04-06T06:12:51;5.20;99.90
9640;DHT22;51745;50.872;4.732;2023-04-06T06:15:39;5.50;99.90
9640;DHT22;51745;50.872;4.732;2023-04-06T06:18:27;5.70;99.90
9640;DHT22;51745;50.872;4.732;2023-04-06T06:21:15;4.20;99.90
9640;DHT22;51745;50.872;4.732;2023-04-06T06:24:04;6.00;99.90
9640;DHT22;51745;50.872;4.732;2023-04-06T06:26:51;6.10;99.90
9640;DHT22;51745;50.872;4.732;2023-04-06T06:29:43;6.30;99.90
9640;DHT22;51745;50.872;4.732;2023-04-06T06:32:32;6.40;99.90
9640;DHT22;51745;50.872;4.732;2023-04-06T06:35:19;6.50;99.90
9640;DHT22;51745;50.872;4.732;2023-04-06T06:38:07;6.70;99.90
9640;DHT22;51745;50.872;4.732;2023-04-06T06:40:55;6.80;99.90
9640;DHT22;51745;50.872;4.732;2023-04-06T06:43:45;6.70;99.90
9640;DHT22;51745;50.872;4.732;2023-04-06T06:46:33;6.80;99.90
9640;DHT22;51745;50.872;4.732;2023-04-06T06:49:23;6.80;99.90
9640;DHT22;51745;50.872;4.732;2023-04-06T06:52:11;6.80;99.90
9640;DHT22;51745;50.872;4.732;2023-04-06T06:54:59;6.90;99.90
9640;DHT22;51745;50.872;4.732;2023-04-06T06:57:47;6.90;99.90
9640;DHT22;51745;50.872;4.732;2023-04-06T07:00:35;6.90;99.90
9640;DHT22;51745;50.872;4.732;2023-04-06T07:03:23;7.50;99.90
9640;DHT22;51745;50.872;4.732;2023-04-06T07:06:12;7.00;99.90
9640;DHT22;51745;50.872;4.732;2023-04-06T07:08:59;7.00;99.90
9640;DHT22;51745;50.872;4.732;2023-04-06T07:11:49;7.00;99.90
9640;DHT22;51745;50.872;4.732;2023-04-06T07:14:37;9.00;99.90
9640;DHT22;51745;50.872;4.732;2023-04-06T07:17:24;7.20;99.90
9640;DHT22;51745;50.872;4.732;2023-04-06T07:20:14;7.50;99.90
9640;DHT22;51745;50.872;4.732;2023-04-06T07:23:04;7.40;99.90
9640;DHT22;51745;50.872;4.732;2023-04-06T07:25:52;6.30;99.90
9640;DHT22;51745;50.872;4.732;2023-04-06T07:28:40;7.40;99.90
9640;DHT22;51745;50.872;4.732;2023-04-06T07:31:31;7.80;99.90
9640;DHT22;51745;50.872;4.732;2023-04-06T07:34:18;7.40;99.90
9640;DHT22;51745;50.872;4.732;2023-04-06T07:37:06;7.00;99.90
9640;DHT22;51745;50.872;4.732;2023-04-06T07:39:55;7.20;99.90
9640;DHT22;51745;50.872;4.732;2023-04-06T07:42:42;7.10;99.90
9640;DHT22;51745;50.872;4.732;2023-04-06T07:45:30;7.00;99.90
9640;DHT22;51745;50.872;4.732;2023-04-06T07:48:19;7.00;99.90
9640;DHT22;51745;50.872;4.732;2023-04-06T07:51:06;6.90;99.90
9640;DHT22;51745;50.872;4.732;2023-04-06T07:53:57;6.90;99.90
9640;DHT22;51745;50.872;4.732;2023-04-06T07:56:50;6.90;99.90
9640;DHT22;51745;50.872;4.732;2023-04-06T07:59:37;6.90;99.90
9640;DHT22;51745;50.872;4.732;2023-04-06T08:02:26;7.00;99.90
9640;DHT22;51745;50.872;4.732;2023-04-06T08:05:14;7.10;99.90
9640;DHT22;51745;50.872;4.732;2023-04-06T08:08:02;7.20;99.90
9640;DHT22;51745;50.872;4.732;2023-04-06T08:10:50;7.40;99.90
9640;DHT22;51745;50.872;4.732;2023-04-06T08:13:40;7.30;99.90
9640;DHT22;51745;50.872;4.732;2023-04-06T08:16:28;7.30;99.90
9640;DHT22;51745;50.872;4.732;2023-04-06T08:19:16;7.40;99.90
9640;DHT22;51745;50.872;4.732;2023-04-06T08:22:05;7.40;99.90
9640;DHT22;51745;50.872;4.732;2023-04-06T08:24:53;7.40;99.90
9640;DHT22;51745;50.872;4.732;2023-04-06T08:27:41;7.50;99.90
9640;DHT22;51745;50.872;4.732;2023-04-06T08:30:30;7.80;99.90
9640;DHT22;51745;50.872;4.732;2023-04-06T08:33:18;7.60;99.90
9640;DHT22;51745;50.872;4.732;2023-04-06T08:36:11;7.70;99.90
9640;DHT22;51745;50.872;4.732;2023-04-06T08:38:58;7.80;99.90
9640;DHT22;51745;50.872;4.732;2023-04-06T08:41:46;8.70;99.90
9640;DHT22;51745;50.872;4.732;2023-04-06T08:44:34;7.70;99.90
9640;DHT22;51745;50.872;4.732;2023-04-06T08:47:25;7.70;99.90
9640;DHT22;51745;50.872;4.732;2023-04-06T08:50:14;7.70;99.90
9640;DHT22;51745;50.872;4.732;2023-04-06T08:53:04;7.80;99.90
9640;DHT22;51745;50.872;4.732;2023-04-06T08:55:53;7.90;99.90
9640;DHT22;51745;50.872;4.732;2023-04-06T08:58:42;8.00;99.90
9640;DHT22;51745;50.872;4.732;2023-04-06T09:01:30;7.50;99.90
9640;DHT22;51745;50.872;4.732;2023-04-06T09:04:19;8.00;99.90
9640;DHT22;51745;50.872;4.732;2023-04-06T09:07:07;8.30;99.90
9640;DHT22;51745;50.872;4.732;2023-04-06T09:09:55;8.20;99.90
9640;DHT22;51745;50.872;4.732;2023-04-06T09:12:43;8.20;99.90
9640;DHT22;51745;50.872;4.732;2023-04-06T09:15:31;8.10;99.90
9640;DHT22;51745;50.872;4.732;2023-04-06T09:18:27;6.00;99.90
9640;DHT22;51745;50.872;4.732;2023-04-06T09:21:17;8.20;99.90
9640;DHT22;51745;50.872;4.732;2023-04-06T09:24:10;8.30;99.90
9640;DHT22;51745;50.872;4.732;2023-04-06T09:26:58;8.30;99.90
9640;DHT22;51745;50.872;4.732;2023-04-06T09:29:47;7.80;99.90
9640;DHT22;51745;50.872;4.732;2023-04-06T09:32:45;8.40;99.90
9640;DHT22;51745;50.872;4.732;2023-04-06T09:35:34;8.50;99.90
9640;DHT22;51745;50.872;4.732;2023-04-06T09:38:24;8.60;99.90
9640;DHT22;51745;50.872;4.732;2023-04-06T09:41:11;8.60;99.90
9640;DHT22;51745;50.872;4.732;2023-04-06T09:44:09;8.60;99.90
9640;DHT22;51745;50.872;4.732;2023-04-06T09:46:57;9.10;99.90
9640;DHT22;51745;50.872;4.732;2023-04-06T09:49:47;8.60;99.90
9640;DHT22;51745;50.872;4.732;2023-04-06T09:52:37;8.50;99.90
9640;DHT22;51745;50.872;4.732;2023-04-06T09:55:28;8.60;99.90
9640;DHT22;51745;50.872;4.732;2023-04-06T09:58:18;8.60;99.90
9640;DHT22;51745;50.872;4.732;2023-04-06T10:01:14;6.80;99.90
9640;DHT22;51745;50.872;4.732;2023-04-06T10:04:07;8.60;99.90
9640;DHT22;51745;50.872;4.732;2023-04-06T10:06:59;8.70;99.90
9640;DHT22;51745;50.872;4.732;2023-04-06T10:09:47;8.80;99.90
9640;DHT22;51745;50.872;4.732;2023-04-06T10:12:36;8.90;99.90
9640;DHT22;51745;50.872;4.732;2023-04-06T10:15:24;8.70;99.90
9640;DHT22;51745;50.872;4.732;2023-04-06T10:18:12;8.40;99.90
9640;DHT22;51745;50.872;4.732;2023-04-06T10:21:01;8.40;99.90
9640;DHT22;51745;50.872;4.732;2023-04-06T10:23:53;8.30;99.90
9640;DHT22;51745;50.872;4.732;2023-04-06T10:26:41;8.50;99.90
9640;DHT22;51745;50.872;4.732;2023-04-06T10:29:42;8.30;99.90
9640;DHT22;51745;50.872;4.732;2023-04-06T10:32:34;8.40;99.90
9640;DHT22;51745;50.872;4.732;2023-04-06T10:35:22;8.50;99.90
9640;DHT22;51745;50.872;4.732;2023-04-06T10:38:11;7.50;99.90
9640;DHT22;51745;50.872;4.732;2023-04-06T10:41:03;8.50;99.90
9640;DHT22;51745;50.872;4.732;2023-04-06T10:43:54;8.40;99.90
9640;DHT22;51745;50.872;4.732;2023-04-06T10:46:51;8.30;99.90
9640;DHT22;51745;50.872;4.732;2023-04-06T10:49:40;8.30;99.90
9640;DHT22;51745;50.872;4.732;2023-04-06T10:52:28;8.40;99.90
9640;DHT22;51745;50.872;4.732;2023-04-06T10:55:17;8.40;99.90
9640;DHT22;51745;50.872;4.732;2023-04-06T10:58:08;8.50;99.90
9640;DHT22;51745;50.872;4.732;2023-04-06T11:00:59;10.50;99.90
9640;DHT22;51745;50.872;4.732;2023-04-06T11:03:50;8.40;99.90
9640;DHT22;51745;50.872;4.732;2023-04-06T11:06:39;6.10;99.90
9640;DHT22;51745;50.872;4.732;2023-04-06T11:09:27;8.40;99.90
9640;DHT22;51745;50.872;4.732;2023-04-06T11:12:20;8.40;99.90
9640;DHT22;51745;50.872;4.732;2023-04-06T11:15:08;8.50;99.90
9640;DHT22;51745;50.872;4.732;2023-04-06T11:17:56;8.60;99.90
9640;DHT22;51745;50.872;4.732;2023-04-06T11:20:48;8.70;99.90
9640;DHT22;51745;50.872;4.732;2023-04-06T11:23:37;8.80;99.90
9640;DHT22;51745;50.872;4.732;2023-04-06T11:26:25;8.70;99.90
9640;DHT22;51745;50.872;4.732;2023-04-06T11:29:14;8.70;99.90
9640;DHT22;51745;50.872;4.732;2023-04-06T11:32:03;8.70;99.90
9640;DHT22;51745;50.872;4.732;2023-04-06T11:34:51;8.70;99.90
9640;DHT22;51745;50.872;4.732;2023-04-06T11:37:39;8.70;99.90
9640;DHT22;51745;50.872;4.732;2023-04-06T11:40:29;8.50;99.90
9640;DHT22;51745;50.872;4.732;2023-04-06T11:43:25;8.40;99.90
9640;DHT22;51745;50.872;4.732;2023-04-06T11:46:16;8.40;99.90
9640;DHT22;51745;50.872;4.732;2023-04-06T11:49:04;8.30;99.90
9640;DHT22;51745;50.872;4.732;2023-04-06T11:51:53;8.30;99.90
9640;DHT22;51745;50.872;4.732;2023-04-06T11:54:41;8.30;99.90
9640;DHT22;51745;50.872;4.732;2023-04-06T11:57:29;8.40;99.90
9640;DHT22;51745;50.872;4.732;2023-04-06T12:00:17;8.60;99.90
9640;DHT22;51745;50.872;4.732;2023-04-06T12:03:06;8.50;99.90
9640;DHT22;51745;50.872;4.732;2023-04-06T12:05:54;8.60;99.90
9640;DHT22;51745;50.872;4.732;2023-04-06T12:08:44;8.60;99.90
9640;DHT22;51745;50.872;4.732;2023-04-06T12:11:34;7.20;99.90
9640;DHT22;51745;50.872;4.732;2023-04-06T12:14:22;8.50;99.90
9640;DHT22;51745;50.872;4.732;2023-04-06T12:17:10;8.50;99.90
9640;DHT22;51745;50.872;4.732;2023-04-06T12:19:58;8.60;99.90
9640;DHT22;51745;50.872;4.732;2023-04-06T12:22:49;8.60;99.90
9640;DHT22;51745;50.872;4.732;2023-04-06T12:25:38;8.80;99.90
9640;DHT22;51745;50.872;4.732;2023-04-06T12:28:28;8.80;99.90
9640;DHT22;51745;50.872;4.732;2023-04-06T12:31:17;8.90;99.90
9640;DHT22;51745;50.872;4.732;2023-04-06T12:34:04;10.10;99.90
9640;DHT22;51745;50.872;4.732;2023-04-06T12:36:52;8.90;99.90
9640;DHT22;51745;50.872;4.732;2023-04-06T12:39:40;9.10;99.90
9640;DHT22;51745;50.872;4.732;2023-04-06T12:42:30;9.30;99.90
9640;DHT22;51745;50.872;4.732;2023-04-06T12:45:21;9.20;99.90
9640;DHT22;51745;50.872;4.732;2023-04-06T12:48:08;9.40;99.90
9640;DHT22;51745;50.872;4.732;2023-04-06T12:50:57;11.30;99.90
9640;DHT22;51745;50.872;4.732;2023-04-06T12:53:44;9.30;99.90
9640;DHT22;51745;50.872;4.732;2023-04-06T12:56:33;9.30;99.90
9640;DHT22;51745;50.872;4.732;2023-04-06T12:59:21;9.20;99.90
9640;DHT22;51745;50.872;4.732;2023-04-06T13:02:13;9.20;99.90
9640;DHT22;51745;50.872;4.732;2023-04-06T13:05:01;9.40;99.90
9640;DHT22;51745;50.872;4.732;2023-04-06T13:07:49;9.30;99.90
9640;DHT22;51745;50.872;4.732;2023-04-06T13:10:37;9.40;99.90
9640;DHT22;51745;50.872;4.732;2023-04-06T13:13:27;9.30;99.90
9640;DHT22;51745;50.872;4.732;2023-04-06T13:16:14;9.30;99.90
9640;DHT22;51745;50.872;4.732;2023-04-06T13:19:04;9.20;99.90
9640;DHT22;51745;50.872;4.732;2023-04-06T13:21:51;9.10;99.90
9640;DHT22;51745;50.872;4.732;2023-04-06T13:24:41;9.00;99.90
9640;DHT22;51745;50.872;4.732;2023-04-06T13:27:29;9.00;99.90
9640;DHT22;51745;50.872;4.732;2023-04-06T13:30:20;8.90;99.90
9640;DHT22;51745;50.872;4.732;2023-04-06T13:33:08;8.80;99.90
9640;DHT22;51745;50.872;4.732;2023-04-06T13:35:59;8.70;99.90
9640;DHT22;51745;50.872;4.732;2023-04-06T13:38:46;8.60;99.90
9640;DHT22;51745;50.872;4.732;2023-04-06T13:41:34;8.60;99.90
9640;DHT22;51745;50.872;4.732;2023-04-06T13:44:25;8.50;99.90
9640;DHT22;51745;50.872;4.732;2023-04-06T13:47:14;8.90;99.90
9640;DHT22;51745;50.872;4.732;2023-04-06T13:50:02;11.00;99.90
9640;DHT22;51745;50.872;4.732;2023-04-06T13:52:52;8.70;99.90
9640;DHT22;51745;50.872;4.732;2023-04-06T13:55:41;8.50;99.90
9640;DHT22;51745;50.872;4.732;2023-04-06T13:58:29;8.70;99.90
9640;DHT22;51745;50.872;4.732;2023-04-06T14:01:17;8.70;99.90
9640;DHT22;51745;50.872;4.732;2023-04-06T14:04:05;8.80;99.90
9640;DHT22;51745;50.872;4.732;2023-04-06T14:06:53;8.80;99.90
9640;DHT22;51745;50.872;4.732;2023-04-06T14:09:42;8.90;99.90
9640;DHT22;51745;50.872;4.732;2023-04-06T14:12:30;8.90;99.90
9640;DHT22;51745;50.872;4.732;2023-04-06T14:15:17;9.00;99.90
9640;DHT22;51745;50.872;4.732;2023-04-06T14:18:05;8.90;99.90
9640;DHT22;51745;50.872;4.732;2023-04-06T14:20:55;8.30;99.90
9640;DHT22;51745;50.872;4.732;2023-04-06T14:23:44;8.90;99.90
9640;DHT22;51745;50.872;4.732;2023-04-06T14:26:33;8.90;99.90
9640;DHT22;51745;50.872;4.732;2023-04-06T14:29:21;8.90;99.90
9640;DHT22;51745;50.872;4.732;2023-04-06T14:32:09;8.90;99.90
9640;DHT22;51745;50.872;4.732;2023-04-06T14:34:58;8.90;99.90
9640;DHT22;51745;50.872;4.732;2023-04-06T14:37:45;8.90;99.90
9640;DHT22;51745;50.872;4.732;2023-04-06T14:40:34;8.10;99.90
9640;DHT22;51745;50.872;4.732;2023-04-06T14:43:23;8.90;99.90
9640;DHT22;51745;50.872;4.732;2023-04-06T14:46:11;9.70;99.90
9640;DHT22;51745;50.872;4.732;2023-04-06T14:48:59;8.60;99.90
9640;DHT22;51745;50.872;4.732;2023-04-06T14:51:46;8.60;99.90
9640;DHT22;51745;50.872;4.732;2023-04-06T14:54:33;8.50;99.90
9640;DHT22;51745;50.872;4.732;2023-04-06T14:57:21;8.70;99.90
9640;DHT22;51745;50.872;4.732;2023-04-06T15:00:11;8.50;99.90
9640;DHT22;51745;50.872;4.732;2023-04-06T15:02:59;8.50;99.90
9640;DHT22;51745;50.872;4.732;2023-04-06T15:05:47;8.50;99.90
9640;DHT22;51745;50.872;4.732;2023-04-06T15:08:34;8.60;99.90
9640;DHT22;51745;50.872;4.732;2023-04-06T15:11:22;8.80;99.90
9640;DHT22;51745;50.872;4.732;2023-04-06T15:14:10;9.00;99.90
9640;DHT22;51745;50.872;4.732;2023-04-06T15:16:59;9.00;99.90
9640;DHT22;51745;50.872;4.732;2023-04-06T15:19:47;9.20;99.90
9640;DHT22;51745;50.872;4.732;2023-04-06T15:22:35;9.10;99.90
9640;DHT22;51745;50.872;4.732;2023-04-06T15:25:22;9.00;99.90
9640;DHT22;51745;50.872;4.732;2023-04-06T15:28:10;9.00;99.90
9640;DHT22;51745;50.872;4.732;2023-04-06T15:30:58;9.10;99.90
9640;DHT22;51745;50.872;4.732;2023-04-06T15:33:50;9.20;99.90
9640;DHT22;51745;50.872;4.732;2023-04-06T15:36:38;9.30;99.90
9640;DHT22;51745;50.872;4.732;2023-04-06T15:39:26;9.20;99.90
9640;DHT22;51745;50.872;4.732;2023-04-06T15:42:14;9.20;99.90
9640;DHT22;51745;50.872;4.732;2023-04-06T15:45:03;9.20;99.90
9640;DHT22;51745;50.872;4.732;2023-04-06T15:47:51;9.00;99.90
9640;DHT22;51745;50.872;4.732;2023-04-06T15:50:41;9.00;99.90
9640;DHT22;51745;50.872;4.732;2023-04-06T15:53:28;9.00;99.90
9640;DHT22;51745;50.872;4.732;2023-04-06T15:56:16;9.20;99.90
9640;DHT22;51745;50.872;4.732;2023-04-06T15:59:04;9.20;99.90
9640;DHT22;51745;50.872;4.732;2023-04-06T16:01:51;9.00;99.90
9640;DHT22;51745;50.872;4.732;2023-04-06T16:04:39;9.20;99.90
9640;DHT22;51745;50.872;4.732;2023-04-06T16:07:29;9.40;99.90
9640;DHT22;51745;50.872;4.732;2023-04-06T16:10:17;9.10;99.90
9640;DHT22;51745;50.872;4.732;2023-04-06T16:13:06;9.00;99.90
9640;DHT22;51745;50.872;4.732;2023-04-06T16:15:54;9.00;99.90
9640;DHT22;51745;50.872;4.732;2023-04-06T16:18:41;9.00;99.90
9640;DHT22;51745;50.872;4.732;2023-04-06T16:21:29;9.10;99.90
9640;DHT22;51745;50.872;4.732;2023-04-06T16:24:19;9.10;99.90
9640;DHT22;51745;50.872;4.732;2023-04-06T16:27:08;10.20;99.90
9640;DHT22;51745;50.872;4.732;2023-04-06T16:29:56;9.20;99.90
9640;DHT22;51745;50.872;4.732;2023-04-06T16:32:44;9.40;99.90
9640;DHT22;51745;50.872;4.732;2023-04-06T16:35:34;9.40;99.90
9640;DHT22;51745;50.872;4.732;2023-04-06T16:38:21;9.40;99.90
9640;DHT22;51745;50.872;4.732;2023-04-06T16:41:11;9.40;99.90
9640;DHT22;51745;50.872;4.732;2023-04-06T16:44:00;9.40;99.90
9640;DHT22;51745;50.872;4.732;2023-04-06T16:46:47;9.40;99.90
9640;DHT22;51745;50.872;4.732;2023-04-06T16:49:35;9.40;99.90
9640;DHT22;51745;50.872;4.732;2023-04-06T16:52:23;9.40;99.90
9640;DHT22;51745;50.872;4.732;2023-04-06T16:55:11;9.40;99.90
9640;DHT22;51745;50.872;4.732;2023-04-06T16:58:00;9.50;99.90
9640;DHT22;51745;50.872;4.732;2023-04-06T17:00:48;9.50;99.90
9640;DHT22;51745;50.872;4.732;2023-04-06T17:03:36;9.50;99.90
9640;DHT22;51745;50.872;4.732;2023-04-06T17:06:24;9.40;99.90
9640;DHT22;51745;50.872;4.732;2023-04-06T17:09:12;9.20;99.90
9640;DHT22;51745;50.872;4.732;2023-04-06T17:12:01;9.20;99.90
9640;DHT22;51745;50.872;4.732;2023-04-06T17:14:50;9.20;99.90
9640;DHT22;51745;50.872;4.732;2023-04-06T17:17:38;9.10;99.90
9640;DHT22;51745;50.872;4.732;2023-04-06T17:20:26;9.10;99.90
9640;DHT22;51745;50.872;4.732;2023-04-06T17:23:14;9.10;99.90
9640;DHT22;51745;50.872;4.732;2023-04-06T17:26:02;8.90;99.90
9640;DHT22;51745;50.872;4.732;2023-04-06T17:28:50;9.00;99.90
9640;DHT22;51745;50.872;4.732;2023-04-06T17:31:40;9.00;99.90
9640;DHT22;51745;50.872;4.732;2023-04-06T17:34:29;9.00;99.90
9640;DHT22;51745;50.872;4.732;2023-04-06T17:37:16;9.00;99.90
9640;DHT22;51745;50.872;4.732;2023-04-06T17:40:05;9.00;99.90
9640;DHT22;51745;50.872;4.732;2023-04-06T17:42:53;9.00;99.90
9640;DHT22;51745;50.872;4.732;2023-04-06T17:45:41;9.00;99.90
9640;DHT22;51745;50.872;4.732;2023-04-06T17:48:30;8.90;99.90
9640;DHT22;51745;50.872;4.732;2023-04-06T17:51:18;9.00;99.90
9640;DHT22;51745;50.872;4.732;2023-04-06T17:54:06;8.80;99.90
9640;DHT22;51745;50.872;4.732;2023-04-06T17:56:54;8.90;99.90
9640;DHT22;51745;50.872;4.732;2023-04-06T17:59:42;9.00;99.90
9640;DHT22;51745;50.872;4.732;2023-04-06T18:02:32;9.00;99.90
9640;DHT22;51745;50.872;4.732;2023-04-06T18:05:22;9.30;99.90
9640;DHT22;51745;50.872;4.732;2023-04-06T18:08:10;9.00;99.90
9640;DHT22;51745;50.872;4.732;2023-04-06T18:11:00;9.00;99.90
9640;DHT22;51745;50.872;4.732;2023-04-06T18:13:48;8.90;99.90
9640;DHT22;51745;50.872;4.732;2023-04-06T18:16:39;8.90;99.90
9640;DHT22;51745;50.872;4.732;2023-04-06T18:19:29;8.90;99.90
9640;DHT22;51745;50.872;4.732;2023-04-06T18:22:18;8.90;99.90
9640;DHT22;51745;50.872;4.732;2023-04-06T18:25:06;6.80;99.90
9640;DHT22;51745;50.872;4.732;2023-04-06T18:27:53;8.50;99.90